sim
Sign-in with your pilot id or email,
or register
Callsign
Passwort

Schedule Details

Flight Number: GEC8472 (1B)
Departure: Mumbai Chhatrapati Shivaji International Airport (VABB) at 05:25
Arrival: Hong Kong International Airport (VHHH) at 10:55
Route: Lufthansa Cargo Cargo Schedule. Enter filed route here before submitting Pirep.

Weather Information
Getting current METAR information for VABB 092300Z 07004KT 3000 HZ NSC 26/20 Q1012 NOSIG
Getting current METAR information for VHHH 092300Z 10004KT 040V190 CAVOK 15/10 Q1019 NOSIG

Schedule Frequency

Route Map